Time;durP1;ratioP1;P1;durP2;ratioP2;P2;SDS_P1;SDS_P2;PMS_P1;PMS_P2;Temp;Humidity;BMP_temperature;BMP_pressure;BME280_temperature;BME280_humidity;BME280_pressure;Samples;Min_cycle;Max_cycle;Signal;HPM_P1;HPM_P2
2022/08/02 00:01:20;;;;;;;9.17;7.03;;;22.90;1.00;;;;;;5088981;28;20280;-72
2022/08/02 00:03:46;;;;;;;10.50;6.87;;;22.80;1.00;;;;;;5086491;28;20184;-73
2022/08/02 00:06:11;;;;;;;7.70;6.90;;;22.70;1.00;;;;;;5079306;28;20211;-72
2022/08/02 00:08:37;;;;;;;9.43;7.20;;;22.60;1.00;;;;;;5090135;28;20605;-72
2022/08/02 00:11:02;;;;;;;9.20;7.50;;;22.50;1.00;;;;;;5088879;28;20211;-72
2022/08/02 00:13:28;;;;;;;9.73;6.30;;;22.40;1.00;;;;;;5090167;28;20277;-72
2022/08/02 00:15:54;;;;;;;8.37;7.07;;;22.40;1.00;;;;;;5090383;28;20168;-73
2022/08/02 00:18:19;;;;;;;8.23;6.83;;;22.30;1.00;;;;;;5086809;28;20788;-72
2022/08/02 00:20:45;;;;;;;8.63;6.43;;;22.20;1.00;;;;;;5090281;28;20167;-72
2022/08/02 00:23:10;;;;;;;10.13;7.20;;;22.20;1.00;;;;;;5083934;28;20184;-73
2022/08/02 00:25:36;;;;;;;9.67;7.47;;;22.20;1.00;;;;;;5089012;28;20171;-72
2022/08/02 00:28:01;;;;;;;10.80;6.90;;;22.20;1.00;;;;;;5078600;28;20681;-72
2022/08/02 00:30:27;;;;;;;8.80;7.57;;;22.20;1.00;;;;;;5081752;28;20179;-73
2022/08/02 00:32:53;;;;;;;11.53;6.97;;;22.10;1.00;;;;;;5098884;28;20170;-73
2022/08/02 00:35:18;;;;;;;7.90;6.60;;;22.00;1.00;;;;;;5087469;28;20228;-72
2022/08/02 00:37:44;;;;;;;8.93;7.33;;;22.10;1.00;;;;;;5089845;28;20574;-72
2022/08/02 00:40:10;;;;;;;10.07;7.40;;;22.10;1.00;;;;;;5085776;28;20191;-73
2022/08/02 00:42:36;;;;;;;10.53;7.10;;;22.00;1.00;;;;;;5084155;28;20238;-72
2022/08/02 00:45:01;;;;;;;14.57;7.10;;;22.00;1.00;;;;;;5090946;28;20409;-72
2022/08/02 00:47:27;;;;;;;10.87;6.17;;;22.00;1.00;;;;;;5084249;28;20591;-73
2022/08/02 00:49:52;;;;;;;10.03;7.47;;;22.00;1.00;;;;;;5089937;28;20175;-73
2022/08/02 00:52:18;;;;;;;8.83;7.10;;;21.90;1.00;;;;;;5086802;28;20211;-72
2022/08/02 00:54:44;;;;;;;13.03;7.50;;;22.00;1.00;;;;;;5090338;28;20658;-72
2022/08/02 00:57:09;;;;;;;8.27;6.83;;;22.00;1.00;;;;;;5088814;28;20175;-73
2022/08/02 00:59:35;;;;;;;7.80;6.50;;;22.00;1.00;;;;;;5079091;28;20667;-72
2022/08/02 01:02:00;;;;;;;9.10;6.80;;;21.90;1.00;;;;;;5089466;28;20272;-73
2022/08/02 01:04:26;;;;;;;10.53;7.10;;;21.70;1.00;;;;;;5094836;28;20183;-73
2022/08/02 01:06:52;;;;;;;9.90;6.40;;;21.70;1.00;;;;;;5088788;28;20485;-72
2022/08/02 01:09:17;;;;;;;8.17;7.23;;;21.60;1.00;;;;;;5083681;28;20190;-72
2022/08/02 01:11:43;;;;;;;11.13;7.50;;;21.50;1.00;;;;;;5086117;28;20215;-72
2022/08/02 01:14:12;;;;;;;9.63;7.53;;;21.50;1.00;;;;;;5085617;28;20183;-72
2022/08/02 01:16:51;;;;;;;8.47;6.90;;;21.50;1.00;;;;;;5090491;28;20202;-72
2022/08/02 01:19:35;;;;;;;9.30;6.83;;;21.50;1.00;;;;;;5081890;28;20564;-72
2022/08/02 01:22:22;;;;;;;10.77;7.70;;;21.50;1.00;;;;;;5086418;28;20461;-72
2022/08/02 01:25:14;;;;;;;12.83;7.60;;;21.50;1.00;;;;;;5086671;28;20436;-73
2022/08/02 01:27:53;;;;;;;8.10;6.33;;;21.50;1.00;;;;;;5088729;28;20448;-72
2022/08/02 01:30:19;;;;;;;13.77;6.87;;;21.50;1.00;;;;;;5085933;28;20772;-72
2022/08/02 01:32:51;;;;;;;8.50;6.83;;;21.60;1.00;;;;;;5080665;28;20469;-72
2022/08/02 01:35:23;;;;;;;9.80;7.37;;;21.60;1.00;;;;;;5089419;28;20405;-73
2022/08/02 01:37:56;;;;;;;9.30;7.50;;;21.60;1.00;;;;;;5076702;28;20915;-72
2022/08/02 01:40:28;;;;;;;11.30;7.17;;;21.70;1.00;;;;;;5087686;28;20416;-72
2022/08/02 01:42:56;;;;;;;8.40;7.13;;;21.80;1.00;;;;;;5079865;28;20438;-72
2022/08/02 01:45:24;;;;;;;9.90;7.67;;;22.00;1.00;;;;;;5088542;28;20413;-72
2022/08/02 01:47:51;;;;;;;8.40;7.07;;;22.10;1.00;;;;;;5086499;28;20841;-72
2022/08/02 01:50:20;;;;;;;9.17;6.90;;;22.10;1.00;;;;;;5083558;28;20417;-73
2022/08/02 01:52:50;;;;;;;9.20;7.00;;;22.10;1.00;;;;;;5087356;28;20597;-72
2022/08/02 01:55:21;;;;;;;8.50;7.10;;;22.10;1.00;;;;;;5087632;28;20944;-73
2022/08/02 01:57:51;;;;;;;8.13;7.23;;;22.00;1.00;;;;;;5086935;28;20425;-72
2022/08/02 02:00:18;;;;;;;11.17;7.00;;;21.90;1.00;;;;;;5076658;28;20437;-73
2022/08/02 02:02:46;;;;;;;9.80;7.10;;;21.80;1.00;;;;;;5075946;28;20834;-73
2022/08/02 02:05:18;;;;;;;9.90;7.03;;;21.90;1.00;;;;;;5088877;28;20494;-73
2022/08/02 02:07:47;;;;;;;10.63;6.77;;;21.80;1.00;;;;;;5086655;28;20495;-72
2022/08/02 02:10:16;;;;;;;12.70;7.60;;;21.70;1.00;;;;;;5088186;28;20537;-73
2022/08/02 02:12:46;;;;;;;8.57;7.30;;;21.70;1.00;;;;;;5083830;28;20476;-73
2022/08/02 02:15:12;;;;;;;9.53;7.03;;;21.70;1.00;;;;;;5089096;28;20409;-72
2022/08/02 02:17:45;;;;;;;9.10;7.20;;;21.70;1.00;;;;;;5082870;28;20518;-73
2022/08/02 02:20:15;;;;;;;10.00;7.50;;;21.80;1.00;;;;;;5068834;28;20407;-72
2022/08/02 02:22:42;;;;;;;10.00;7.43;;;21.80;1.00;;;;;;5074809;28;20485;-72
2022/08/02 02:25:08;;;;;;;8.80;7.30;;;21.80;1.00;;;;;;5091802;28;20429;-73
2022/08/02 02:27:36;;;;;;;8.90;7.50;;;21.80;1.00;;;;;;5082274;28;20495;-73
2022/08/02 02:30:03;;;;;;;9.10;6.97;;;21.80;1.00;;;;;;5079269;28;20613;-73
2022/08/02 02:32:29;;;;;;;9.50;7.50;;;21.80;1.00;;;;;;5088184;28;20468;-73
2022/08/02 02:34:57;;;;;;;9.37;6.80;;;21.80;1.00;;;;;;5090956;28;20424;-73
2022/08/02 02:37:26;;;;;;;8.60;7.10;;;21.80;1.00;;;;;;5091127;28;20436;-73
2022/08/02 02:39:54;;;;;;;15.67;7.03;;;21.80;1.00;;;;;;5093134;28;20404;-73
2022/08/02 02:42:23;;;;;;;11.30;7.43;;;21.80;1.00;;;;;;5088213;28;20994;-73
2022/08/02 02:44:51;;;;;;;8.93;7.30;;;21.80;1.00;;;;;;5092864;28;20420;-73
2022/08/02 02:47:18;;;;;;;8.30;7.23;;;21.70;1.00;;;;;;5088710;28;20447;-72
2022/08/02 02:49:46;;;;;;;7.00;6.30;;;21.70;1.00;;;;;;5090271;28;20848;-72
2022/08/02 02:52:15;;;;;;;8.87;6.90;;;21.80;1.00;;;;;;5090175;28;20464;-72
2022/08/02 02:54:42;;;;;;;9.43;6.77;;;21.70;1.00;;;;;;5092402;28;20401;-72
2022/08/02 02:57:09;;;;;;;10.10;6.80;;;21.70;1.00;;;;;;5088770;28;20471;-72
2022/08/02 02:59:35;;;;;;;9.63;6.50;;;21.60;1.00;;;;;;5087681;28;20927;-72
2022/08/02 03:02:03;;;;;;;10.93;6.30;;;21.50;1.00;;;;;;5091218;28;20533;-72
2022/08/02 03:04:29;;;;;;;11.23;7.10;;;21.30;1.00;;;;;;5089699;28;20448;-72
2022/08/02 03:06:55;;;;;;;10.07;6.87;;;21.20;1.00;;;;;;5092842;28;20409;-72
2022/08/02 03:09:20;;;;;;;9.10;6.87;;;21.00;1.00;;;;;;5087268;28;20440;-72
2022/08/02 03:11:47;;;;;;;9.93;6.90;;;21.00;1.00;;;;;;5085702;28;20290;-72
2022/08/02 03:14:13;;;;;;;9.33;6.80;;;20.70;1.00;;;;;;5090244;28;20175;-73
2022/08/02 03:16:43;;;;;;;13.73;7.47;;;20.60;1.00;;;;;;5085696;28;20916;-73
2022/08/02 03:19:09;;;;;;;8.50;7.17;;;20.50;1.00;;;;;;5079440;28;20176;-73
2022/08/02 03:21:34;;;;;;;9.10;7.20;;;20.50;1.00;;;;;;5091378;28;20464;-73
2022/08/02 03:24:00;;;;;;;9.63;6.97;;;20.50;1.00;;;;;;5086929;28;20210;-73
2022/08/02 03:26:25;;;;;;;10.00;8.00;;;20.40;1.00;;;;;;5091986;28;20222;-72
2022/08/02 03:28:51;;;;;;;9.20;7.10;;;20.40;1.00;;;;;;5080663;28;20267;-72
2022/08/02 03:31:16;;;;;;;9.87;7.20;;;20.40;1.00;;;;;;5085709;28;20622;-72
2022/08/02 03:33:42;;;;;;;8.67;6.90;;;20.40;1.00;;;;;;5087101;28;20179;-72
2022/08/02 03:36:12;;;;;;;8.77;7.87;;;20.40;1.00;;;;;;5086183;28;20710;-72
2022/08/02 03:38:38;;;;;;;9.37;7.10;;;20.40;1.00;;;;;;5090582;28;20260;-72
2022/08/02 03:41:05;;;;;;;10.10;7.37;;;20.40;1.00;;;;;;5091389;28;20445;-72
2022/08/02 03:43:31;;;;;;;9.03;7.10;;;20.40;1.00;;;;;;5090018;28;20555;-72
2022/08/02 03:45:57;;;;;;;8.50;7.70;;;20.50;1.00;;;;;;5090902;28;20405;-73
2022/08/02 03:48:25;;;;;;;8.87;7.80;;;20.40;1.00;;;;;;5077755;28;20855;-73
2022/08/02 03:50:51;;;;;;;13.13;7.80;;;20.50;1.00;;;;;;5090368;28;20464;-72
2022/08/02 03:53:18;;;;;;;10.17;8.30;;;20.50;1.00;;;;;;5084524;28;20426;-73
2022/08/02 03:55:44;;;;;;;8.30;6.97;;;20.50;1.00;;;;;;5091475;28;20183;-72
2022/08/02 03:58:17;;;;;;;12.70;7.67;;;20.60;1.00;;;;;;5076870;28;20463;-72
2022/08/02 04:00:43;;;;;;;9.23;6.90;;;20.70;1.00;;;;;;5079271;28;20176;-72
2022/08/02 04:03:08;;;;;;;15.43;7.40;;;20.70;1.00;;;;;;5095026;28;20437;-73
2022/08/02 04:05:34;;;;;;;10.97;7.57;;;20.70;1.00;;;;;;5087813;28;20171;-73
2022/08/02 04:07:59;;;;;;;9.70;7.80;;;20.70;1.00;;;;;;5090184;28;20183;-72
2022/08/02 04:10:25;;;;;;;8.50;7.40;;;20.60;1.00;;;;;;5087023;28;20182;-72
2022/08/02 04:12:51;;;;;;;9.57;7.80;;;20.50;1.00;;;;;;5089595;28;20210;-72
2022/08/02 04:15:17;;;;;;;9.60;6.93;;;20.50;1.00;;;;;;5089898;28;20661;-72
2022/08/02 04:17:48;;;;;;;11.40;7.20;;;20.50;1.00;;;;;;5091800;28;20174;-72
2022/08/02 04:20:18;;;;;;;11.03;7.27;;;20.50;1.00;;;;;;5089371;28;20171;-73
2022/08/02 04:22:51;;;;;;;7.77;6.97;;;20.50;1.00;;;;;;5087979;28;20523;-73
2022/08/02 04:25:19;;;;;;;7.63;6.83;;;20.50;1.00;;;;;;5090467;28;20409;-73
2022/08/02 04:27:45;;;;;;;9.03;7.17;;;20.50;1.00;;;;;;5089162;28;20844;-72
2022/08/02 04:30:11;;;;;;;10.33;7.00;;;20.50;1.00;;;;;;5084141;28;20554;-72
2022/08/02 04:32:38;;;;;;;14.00;7.47;;;20.40;1.00;;;;;;5088014;28;20868;-72
2022/08/02 04:35:04;;;;;;;11.93;7.70;;;20.30;1.00;;;;;;5089299;28;20410;-73
2022/08/02 04:37:29;;;;;;;8.10;7.30;;;20.10;1.00;;;;;;5090144;28;20429;-72
2022/08/02 04:39:55;;;;;;;7.33;6.53;;;20.00;1.00;;;;;;5088474;28;20433;-72
2022/08/02 04:42:23;;;;;;;9.20;7.53;;;20.10;1.00;;;;;;5081873;28;20204;-72
2022/08/02 04:44:49;;;;;;;9.63;7.00;;;20.10;1.00;;;;;;5087379;28;20176;-72
2022/08/02 04:47:15;;;;;;;9.13;7.53;;;20.10;1.00;;;;;;5082572;28;20440;-72
2022/08/02 04:49:41;;;;;;;10.60;7.80;;;20.10;1.00;;;;;;5090218;28;20410;-73
2022/08/02 04:52:06;;;;;;;13.77;7.43;;;20.10;1.00;;;;;;5080936;28;20262;-72
2022/08/02 04:54:32;;;;;;;12.47;8.17;;;20.10;1.00;;;;;;5090559;28;20168;-73
2022/08/02 04:56:57;;;;;;;9.67;8.20;;;20.10;1.00;;;;;;5087070;28;20171;-72
2022/08/02 04:59:23;;;;;;;8.63;7.53;;;20.20;1.00;;;;;;5083955;28;20448;-72
2022/08/02 05:01:48;;;;;;;9.17;7.80;;;20.20;1.00;;;;;;5081051;28;20218;-72
2022/08/02 05:04:14;;;;;;;14.07;9.17;;;20.20;1.00;;;;;;5079912;28;20723;-73
2022/08/02 05:06:39;;;;;;;9.10;7.83;;;20.30;1.00;;;;;;5090931;28;20171;-72
2022/08/02 05:09:05;;;;;;;13.03;8.47;;;20.40;1.00;;;;;;5086138;28;20211;-72
2022/08/02 05:11:30;;;;;;;12.30;9.33;;;20.50;1.00;;;;;;5093413;28;20252;-72
2022/08/02 05:13:57;;;;;;;11.37;8.33;;;20.50;1.00;;;;;;5090163;28;20217;-73
2022/08/02 05:16:24;;;;;;;14.10;9.20;;;20.50;1.00;;;;;;5086558;28;20180;-72
2022/08/02 05:18:50;;;;;;;16.60;10.90;;;20.60;1.00;;;;;;5086564;28;20488;-72
2022/08/02 05:21:15;;;;;;;11.80;9.10;;;20.70;1.00;;;;;;5078029;28;20484;-72
2022/08/02 05:23:41;;;;;;;10.20;8.73;;;20.70;1.00;;;;;;5083525;28;20185;-71
2022/08/02 05:26:06;;;;;;;12.97;9.37;;;20.80;1.00;;;;;;5089929;28;20676;-71
2022/08/02 05:28:32;;;;;;;14.43;9.63;;;20.90;1.00;;;;;;5087397;28;20194;-72
2022/08/02 05:30:57;;;;;;;12.67;8.77;;;21.00;1.00;;;;;;5076881;28;20207;-72
2022/08/02 05:33:24;;;;;;;12.47;9.20;;;21.10;1.00;;;;;;5080606;28;20192;-72
2022/08/02 05:35:49;;;;;;;10.97;8.53;;;21.20;1.00;;;;;;5089858;28;20679;-72
2022/08/02 05:38:15;;;;;;;11.63;8.90;;;21.50;1.00;;;;;;5090292;28;20238;-72
2022/08/02 05:40:40;;;;;;;13.73;9.20;;;21.30;1.00;;;;;;5086621;28;20167;-72
2022/08/02 05:43:13;;;;;;;9.70;8.40;;;21.40;1.00;;;;;;5069507;28;20199;-73
2022/08/02 05:45:39;;;;;;;15.93;9.07;;;21.50;1.00;;;;;;5071528;28;20168;-73
2022/08/02 05:48:05;;;;;;;12.80;8.90;;;22.60;1.00;;;;;;5090115;28;20435;-73
2022/08/02 05:50:32;;;;;;;11.47;9.10;;;21.70;1.00;;;;;;5086747;28;20175;-72
2022/08/02 05:53:04;;;;;;;10.30;9.20;;;21.60;1.00;;;;;;5086905;28;20179;-72
2022/08/02 05:55:34;;;;;;;10.80;9.17;;;21.70;1.00;;;;;;5072485;28;20417;-72
2022/08/02 05:58:14;;;;;;;11.63;9.10;;;21.80;1.00;;;;;;5069086;28;20383;-72
2022/08/02 06:00:41;;;;;;;10.87;9.53;;;21.90;1.00;;;;;;5077621;28;20430;-72
2022/08/02 06:03:15;;;;;;;11.00;9.70;;;21.90;1.00;;;;;;5076668;28;20788;-73
2022/08/02 06:05:57;;;;;;;11.07;8.97;;;21.90;1.00;;;;;;5100782;28;20421;-72
2022/08/02 06:08:28;;;;;;;13.40;8.60;;;22.00;1.00;;;;;;5085559;28;20788;-73
2022/08/02 06:10:55;;;;;;;11.50;8.20;;;22.00;1.00;;;;;;5085714;28;20548;-72
2022/08/02 06:13:22;;;;;;;12.83;8.23;;;22.00;1.00;;;;;;5082371;28;20436;-72
2022/08/02 06:15:51;;;;;;;10.03;8.73;;;22.20;1.00;;;;;;5078801;28;20426;-73
2022/08/02 06:18:18;;;;;;;15.40;8.60;;;22.20;1.00;;;;;;5085245;28;20412;-72
2022/08/02 06:20:49;;;;;;;25.83;9.13;;;22.40;1.00;;;;;;5088378;28;20420;-73
2022/08/02 06:23:16;;;;;;;10.00;8.00;;;22.40;1.00;;;;;;5073225;28;20505;-73
2022/08/02 06:25:46;;;;;;;9.30;7.93;;;22.50;1.00;;;;;;5074752;28;21032;-73
2022/08/02 06:28:12;;;;;;;10.80;8.07;;;22.60;1.00;;;;;;5086672;28;20420;-72
2022/08/02 06:30:39;;;;;;;10.73;8.43;;;22.70;1.00;;;;;;5081956;28;20429;-72
2022/08/02 06:33:05;;;;;;;14.50;7.97;;;22.70;1.00;;;;;;5076699;28;20434;-72
2022/08/02 06:35:36;;;;;;;10.77;7.60;;;22.80;1.00;;;;;;5082789;28;20436;-73
2022/08/02 06:38:02;;;;;;;14.13;7.67;;;22.80;1.00;;;;;;5079679;28;20504;-73
2022/08/02 06:41:00;;;;;;;17.90;7.77;;;23.00;1.00;;;;;;5085667;28;20437;-73
2022/08/02 06:43:31;;;;;;;8.40;7.00;;;23.10;1.00;;;;;;5076936;28;20428;-73
2022/08/02 06:45:56;;;;;;;10.10;7.80;;;23.20;1.00;;;;;;5089953;28;20488;-73
2022/08/02 06:48:23;;;;;;;14.40;7.60;;;23.40;1.00;;;;;;5089741;28;20508;-73
2022/08/02 06:50:48;;;;;;;8.40;7.40;;;23.50;1.00;;;;;;5089266;28;20206;-73
2022/08/02 06:53:14;;;;;;;9.87;6.97;;;23.60;1.00;;;;;;5089378;28;20405;-73
2022/08/02 06:55:40;;;;;;;10.80;6.90;;;23.60;1.00;;;;;;5089410;28;20637;-73
2022/08/02 06:58:05;;;;;;;8.27;6.80;;;23.70;1.00;;;;;;5089875;28;20235;-73
2022/08/02 07:00:30;;;;;;;7.33;6.63;;;23.80;1.00;;;;;;5089930;28;20254;-73
2022/08/02 07:02:56;;;;;;;7.70;6.90;;;23.90;1.00;;;;;;5097255;28;20175;-73
2022/08/02 07:05:22;;;;;;;7.03;6.33;;;24.00;1.00;;;;;;5103262;28;20253;-73
2022/08/02 07:07:48;;;;;;;7.87;6.47;;;24.10;1.00;;;;;;5110736;28;20622;-73
2022/08/02 07:10:14;;;;;;;11.10;5.97;;;24.30;1.00;;;;;;5113719;27;20163;-73
2022/08/02 07:12:40;;;;;;;9.67;5.87;;;24.50;1.00;;;;;;5113567;28;20578;-73
2022/08/02 07:15:07;;;;;;;7.37;6.33;;;24.80;1.00;;;;;;5114051;28;20447;-73
2022/08/02 07:17:33;;;;;;;7.47;6.17;;;24.90;1.00;;;;;;5113629;28;20639;-73
2022/08/02 07:19:59;;;;;;;9.00;6.20;;;25.00;1.00;;;;;;5113745;28;20439;-73
2022/08/02 07:22:26;;;;;;;7.07;5.90;;;25.10;1.00;;;;;;5113431;28;20515;-73
2022/08/02 07:24:53;;;;;;;6.30;5.53;;;25.30;1.00;;;;;;5113724;28;20604;-73
2022/08/02 07:27:20;;;;;;;7.80;5.57;;;25.40;1.00;;;;;;5104302;28;20437;-73
2022/08/02 07:29:46;;;;;;;6.80;5.40;;;25.50;1.00;;;;;;5093136;28;20415;-73
2022/08/02 07:32:12;;;;;;;6.50;5.70;;;25.70;1.00;;;;;;5097054;28;20846;-73
2022/08/02 07:34:37;;;;;;;7.23;5.70;;;25.90;1.00;;;;;;5104829;28;20228;-73
2022/08/02 07:37:03;;;;;;;7.13;5.67;;;26.20;1.00;;;;;;5113700;28;20694;-73
2022/08/02 07:39:28;;;;;;;6.03;5.23;;;26.20;1.00;;;;;;5113685;28;20835;-73
2022/08/02 07:41:54;;;;;;;8.53;5.93;;;26.30;1.00;;;;;;5112215;28;20265;-73
2022/08/02 07:44:20;;;;;;;6.73;5.70;;;26.40;1.00;;;;;;5113857;28;20231;-73
2022/08/02 07:46:46;;;;;;;7.53;5.53;;;26.60;1.00;;;;;;5111579;28;20552;-73
2022/08/02 07:49:17;;;;;;;5.70;4.90;;;26.80;1.00;;;;;;5113310;28;20404;-73
2022/08/02 07:51:46;;;;;;;7.17;5.27;;;27.10;1.00;;;;;;5112739;28;20601;-74
2022/08/02 07:54:11;;;;;;;8.23;5.27;;;27.50;1.00;;;;;;5113040;27;20392;-73
2022/08/02 07:56:37;;;;;;;7.33;5.20;;;27.50;1.00;;;;;;5113012;28;20481;-73
2022/08/02 07:59:03;;;;;;;7.00;6.27;;;27.70;1.00;;;;;;5112777;28;20220;-74
2022/08/02 08:01:29;;;;;;;7.47;5.10;;;28.00;1.00;;;;;;5104031;28;20306;-74
2022/08/02 08:03:54;;;;;;;7.10;5.13;;;28.30;1.00;;;;;;5103187;28;21166;-73
2022/08/02 08:06:20;;;;;;;5.20;4.70;;;28.60;1.00;;;;;;5113259;28;20178;-73
2022/08/02 08:08:46;;;;;;;6.60;5.00;;;28.70;1.00;;;;;;5107313;28;20180;-73
2022/08/02 08:11:12;;;;;;;4.93;4.20;;;28.80;1.00;;;;;;5091183;28;20610;-73
2022/08/02 08:13:37;;;;;;;7.27;4.77;;;29.10;1.00;;;;;;5091996;28;20197;-73
2022/08/02 08:16:03;;;;;;;7.80;4.67;;;29.30;1.00;;;;;;5092685;28;20167;-73
2022/08/02 08:18:29;;;;;;;7.50;4.47;;;29.40;1.00;;;;;;5091837;28;20645;-74
2022/08/02 08:20:54;;;;;;;4.23;3.77;;;29.40;1.00;;;;;;5090718;28;20187;-72
2022/08/02 08:23:20;;;;;;;5.07;4.30;;;29.50;1.00;;;;;;5092092;28;20171;-73
2022/08/02 08:25:45;;;;;;;11.47;4.10;;;29.70;1.00;;;;;;5091702;28;20172;-74
2022/08/02 08:28:11;;;;;;;5.70;4.10;;;29.80;1.00;;;;;;5092038;28;20182;-74
2022/08/02 08:30:39;;;;;;;4.30;3.90;;;29.90;1.00;;;;;;5092890;28;20172;-74
2022/08/02 08:33:04;;;;;;;5.53;3.80;;;30.20;1.00;;;;;;5093713;28;20179;-74
2022/08/02 08:35:30;;;;;;;4.73;3.90;;;30.60;1.00;;;;;;5108676;28;20166;-74
2022/08/02 08:37:55;;;;;;;7.63;3.83;;;30.80;1.00;;;;;;5114203;28;20635;-74
2022/08/02 08:40:24;;;;;;;3.70;3.13;;;31.00;1.00;;;;;;5074958;28;20642;-73
2022/08/02 08:42:50;;;;;;;5.40;3.30;;;31.70;1.00;;;;;;5069499;28;20469;-74
2022/08/02 08:45:16;;;;;;;4.65;3.30;;;32.40;1.00;;;;;;5071830;28;20635;-75
2022/08/02 08:47:42;;;;;;;5.85;3.83;;;33.20;1.00;;;;;;5080328;28;20227;-74
2022/08/02 08:50:11;;;;;;;4.57;3.55;;;34.00;1.00;;;;;;5091282;28;20311;-74
2022/08/02 08:52:56;;;;;;;3.45;3.10;;;35.10;1.00;;;;;;5091216;28;20206;-74
2022/08/02 08:55:23;;;;;;;8.02;3.75;;;36.20;1.00;;;;;;5090471;28;20601;-74
2022/08/02 08:57:49;;;;;;;5.45;3.50;;;36.50;1.00;;;;;;5091769;28;20167;-75
2022/08/02 09:00:15;;;;;;;4.57;3.40;;;37.00;1.00;;;;;;5091852;28;20171;-75
2022/08/02 09:02:42;;;;;;;5.97;3.20;;;37.70;1.00;;;;;;5098909;28;20606;-75
2022/08/02 09:05:10;;;;;;;3.92;3.30;;;38.20;1.00;;;;;;5102963;28;20200;-75
2022/08/02 09:07:36;;;;;;;4.13;3.58;;;38.60;1.00;;;;;;5112158;28;20671;-75
2022/08/02 09:10:54;;;;;;;3.22;2.90;;;38.90;1.00;;;;;;5111346;28;20170;-75
2022/08/02 09:13:29;;;;;;;3.13;2.72;;;39.20;1.00;;;;;;5087605;28;20205;-75
2022/08/02 09:16:03;;;;;;;5.47;3.35;;;39.60;1.00;;;;;;5111940;28;20173;-75
2022/08/02 09:18:30;;;;;;;3.28;2.60;;;39.50;1.00;;;;;;5111094;28;20529;-75
2022/08/02 09:20:59;;;;;;;5.07;3.10;;;39.80;1.00;;;;;;5111485;28;20182;-74
2022/08/02 09:23:25;;;;;;;3.50;2.85;;;40.10;1.00;;;;;;5111094;28;20171;-74
2022/08/02 09:26:05;;;;;;;3.30;2.63;;;40.50;1.00;;;;;;5111461;28;20163;-75
2022/08/02 09:28:33;;;;;;;4.43;3.08;;;41.00;1.00;;;;;;5092215;28;20179;-75
2022/08/02 09:31:11;;;;;;;3.55;2.97;;;41.20;1.00;;;;;;5089863;28;20272;-75
2022/08/02 09:33:38;;;;;;;3.30;2.90;;;41.60;1.00;;;;;;5098815;28;20627;-76
2022/08/02 09:36:05;;;;;;;6.55;3.13;;;41.90;1.00;;;;;;5110239;28;20170;-75
2022/08/02 09:38:31;;;;;;;3.53;2.90;;;41.70;1.00;;;;;;5110905;28;20171;-74
2022/08/02 09:40:58;;;;;;;4.97;2.90;;;41.90;1.00;;;;;;5110577;28;20198;-75
2022/08/02 09:43:42;;;;;;;4.47;3.08;;;41.80;1.00;;;;;;5110628;28;20166;-75
2022/08/02 09:46:20;;;;;;;4.75;3.00;;;42.00;1.00;;;;;;5109973;28;20721;-74
2022/08/02 09:48:50;;;;;;;5.68;2.80;;;42.30;1.00;;;;;;5109097;28;20178;-75
2022/08/02 09:51:19;;;;;;;4.75;2.72;;;42.90;1.00;;;;;;5109081;28;20207;-75
2022/08/02 09:53:46;;;;;;;4.85;2.90;;;43.00;1.00;;;;;;5108906;28;20247;-75
2022/08/02 09:56:11;;;;;;;3.55;3.05;;;42.70;1.00;;;;;;5110715;28;20169;-75
2022/08/02 09:58:38;;;;;;;3.58;2.92;;;42.40;1.00;;;;;;5110875;28;20162;-75
2022/08/02 10:01:04;;;;;;;4.35;2.83;;;42.30;1.00;;;;;;5106607;28;20547;-74
2022/08/02 10:03:29;;;;;;;5.03;3.00;;;42.50;1.00;;;;;;5098131;28;20205;-75
2022/08/02 10:06:00;;;;;;;5.75;2.60;;;42.70;1.00;;;;;;5109284;28;20397;-76
2022/08/02 10:08:27;;;;;;;5.32;2.55;;;42.80;1.00;;;;;;5106159;28;20216;-75
2022/08/02 10:10:59;;;;;;;3.97;2.70;;;42.70;1.00;;;;;;5088139;28;20527;-74
2022/08/02 10:13:35;;;;;;;2.95;2.30;;;43.40;1.00;;;;;;5089923;28;20159;-75
2022/08/02 10:16:01;;;;;;;3.63;2.22;;;44.00;1.00;;;;;;5090510;28;20167;-75
2022/08/02 10:18:27;;;;;;;7.28;2.25;;;44.70;1.00;;;;;;5090457;28;20160;-75
2022/08/02 10:20:55;;;;;;;3.55;2.30;;;45.10;1.00;;;;;;5089317;28;20185;-73
2022/08/02 10:23:24;;;;;;;4.25;2.20;;;45.40;1.00;;;;;;5090249;28;20177;-76
2022/08/02 10:25:52;;;;;;;2.63;2.00;;;45.80;1.00;;;;;;5089783;28;20213;-76
2022/08/02 10:28:22;;;;;;;3.95;2.05;;;46.30;1.00;;;;;;5089028;28;20672;-75
2022/08/02 10:30:48;;;;;;;8.43;2.20;;;46.90;1.00;;;;;;5090370;28;20173;-75
2022/08/02 10:33:17;;;;;;;5.00;1.95;;;47.30;1.00;;;;;;5097678;28;20245;-75
2022/08/02 10:35:44;;;;;;;6.65;2.25;;;47.40;1.00;;;;;;5107724;28;20635;-75
2022/08/02 10:38:11;;;;;;;3.15;1.90;;;47.20;1.00;;;;;;5076212;28;20187;-75
2022/08/02 10:40:46;;;;;;;4.35;2.10;;;47.80;1.00;;;;;;5069000;28;20161;-75
2022/08/02 10:43:32;;;;;;;2.80;1.95;;;47.80;1.00;;;;;;5070011;28;20168;-75
2022/08/02 10:46:32;;;;;;;3.22;2.30;;;47.90;1.00;;;;;;5073801;28;20184;-75
2022/08/02 10:49:15;;;;;;;3.28;2.08;;;47.10;1.00;;;;;;5081053;28;20175;-76
2022/08/02 10:52:07;;;;;;;3.90;2.03;;;46.60;1.00;;;;;;5093285;28;20214;-75
2022/08/02 10:54:41;;;;;;;2.60;2.10;;;45.40;1.00;;;;;;5092559;28;20186;-75
2022/08/02 10:57:19;;;;;;;3.35;2.10;;;43.70;1.00;;;;;;5093361;28;20198;-75
2022/08/02 10:59:46;;;;;;;9.98;2.30;;;44.20;1.00;;;;;;5094198;28;20578;-75
2022/08/02 11:02:12;;;;;;;2.80;2.22;;;44.20;1.00;;;;;;5097951;28;20194;-75
2022/08/02 11:04:40;;;;;;;4.13;2.33;;;44.60;1.00;;;;;;5105438;28;20197;-75
2022/08/02 11:07:07;;;;;;;3.85;2.28;;;45.40;1.00;;;;;;5114214;28;20253;-75
2022/08/02 11:09:33;;;;;;;3.40;2.22;;;45.70;1.00;;;;;;5112639;28;20178;-75
2022/08/02 11:12:02;;;;;;;2.60;2.00;;;45.80;1.00;;;;;;5112476;28;20747;-75
2022/08/02 11:14:28;;;;;;;2.67;2.33;;;45.70;1.00;;;;;;5112949;28;20163;-75
2022/08/02 11:16:53;;;;;;;3.75;2.28;;;45.90;1.00;;;;;;5112249;28;20198;-75
2022/08/02 11:19:19;;;;;;;3.22;2.17;;;46.90;1.00;;;;;;5112810;28;20653;-75
2022/08/02 11:22:09;;;;;;;4.18;2.22;;;46.80;1.00;;;;;;5113417;28;20729;-75
2022/08/02 11:24:37;;;;;;;4.13;1.90;;;46.40;1.00;;;;;;5113722;28;20178;-75
2022/08/02 11:27:08;;;;;;;3.42;2.08;;;45.30;1.00;;;;;;5107097;28;20217;-75
2022/08/02 11:29:34;;;;;;;3.33;2.10;;;42.90;1.00;;;;;;5093158;28;20186;-75
2022/08/02 11:32:00;;;;;;;2.83;2.35;;;40.80;1.00;;;;;;5094301;28;20700;-74
2022/08/02 11:34:26;;;;;;;3.05;2.22;;;38.80;1.00;;;;;;5103803;28;20498;-74
2022/08/02 11:36:52;;;;;;;3.78;2.53;;;37.20;1.00;;;;;;5113782;28;20179;-75
2022/08/02 11:39:21;;;;;;;2.92;2.60;;;36.90;1.00;;;;;;5113457;28;20216;-75
2022/08/02 11:41:51;;;;;;;2.97;2.28;;;39.40;1.00;;;;;;5112030;28;20190;-75
2022/08/02 11:44:17;;;;;;;3.20;2.42;;;42.00;1.00;;;;;;5113778;28;20422;-75
2022/08/02 11:46:42;;;;;;;4.13;2.33;;;44.00;1.00;;;;;;5113570;28;20167;-75
2022/08/02 11:49:16;;;;;;;2.80;2.33;;;44.70;1.00;;;;;;5113116;28;20667;-75
2022/08/02 11:52:03;;;;;;;4.53;2.15;;;43.40;1.00;;;;;;5112664;28;20687;-75
2022/08/02 11:54:32;;;;;;;2.60;2.10;;;41.50;1.00;;;;;;5112655;28;20514;-75
2022/08/02 11:57:29;;;;;;;3.50;2.42;;;39.90;1.00;;;;;;5112507;28;20210;-75
2022/08/02 11:59:55;;;;;;;2.90;2.10;;;39.40;1.00;;;;;;5113566;28;20635;-75
2022/08/02 12:02:23;;;;;;;2.80;2.10;;;41.30;1.00;;;;;;5102730;28;20296;-75
2022/08/02 12:05:01;;;;;;;2.70;2.00;;;42.80;1.00;;;;;;5104310;28;20174;-75
2022/08/02 12:07:28;;;;;;;4.28;2.13;;;43.50;1.00;;;;;;5113116;28;20170;-75
2022/08/02 12:10:17;;;;;;;2.80;2.10;;;43.00;1.00;;;;;;5097644;28;20182;-75
2022/08/02 12:12:51;;;;;;;3.72;2.10;;;41.50;1.00;;;;;;5091431;28;20199;-75
2022/08/02 12:15:36;;;;;;;3.22;2.20;;;41.70;1.00;;;;;;5090777;28;20167;-75
2022/08/02 12:20:51;;;;;;;4.20;2.08;;;42.90;1.00;;;;;;5092614;28;20561;-75
2022/08/02 12:23:17;;;;;;;4.50;2.20;;;44.10;1.00;;;;;;5092381;28;20171;-75
2022/08/02 12:25:42;;;;;;;3.10;1.80;;;45.20;1.00;;;;;;5091344;28;20191;-75
2022/08/02 12:28:16;;;;;;;3.15;2.00;;;45.30;1.00;;;;;;5091780;28;20266;-75
2022/08/02 12:30:57;;;;;;;3.83;1.98;;;45.00;1.00;;;;;;5090405;28;20167;-75
2022/08/02 12:33:25;;;;;;;7.45;2.17;;;45.40;1.00;;;;;;5100065;28;20228;-75
2022/08/02 12:35:51;;;;;;;2.78;1.80;;;46.20;1.00;;;;;;5110951;28;20167;-75
2022/08/02 12:38:16;;;;;;;4.13;2.00;;;46.00;1.00;;;;;;5112464;28;20530;-75
2022/08/02 12:40:42;;;;;;;2.47;1.88;;;45.10;1.00;;;;;;5111432;28;20173;-75
2022/08/02 12:43:25;;;;;;;3.33;1.95;;;45.20;1.00;;;;;;5111964;28;20545;-75
2022/08/02 12:45:53;;;;;;;6.22;1.77;;;45.80;1.00;;;;;;5110085;28;20178;-75
2022/08/02 12:48:36;;;;;;;3.55;1.67;;;44.20;1.00;;;;;;5087965;28;20171;-76
2022/08/02 12:51:18;;;;;;;3.05;1.83;;;41.50;1.00;;;;;;5071445;28;20196;-74
2022/08/02 12:53:44;;;;;;;2.92;1.80;;;41.10;1.00;;;;;;5071602;28;20167;-75
2022/08/02 12:56:09;;;;;;;3.05;1.90;;;43.60;1.00;;;;;;5071057;28;20638;-75
2022/08/02 12:58:53;;;;;;;3.47;1.80;;;45.40;1.00;;;;;;5069986;28;20213;-76
2022/08/02 13:01:25;;;;;;;2.58;1.80;;;46.30;1.00;;;;;;5076192;28;20561;-75
2022/08/02 13:03:51;;;;;;;3.00;1.80;;;45.90;1.00;;;;;;5101408;28;20198;-75
2022/08/02 13:06:18;;;;;;;2.53;1.55;;;45.50;1.00;;;;;;5111182;28;20248;-75